Time;durP1;ratioP1;P1;durP2;ratioP2;P2;SDS_P1;SDS_P2;PMS_P1;PMS_P2;Temp;Humidity;BMP_temperature;BMP_pressure;BME280_temperature;BME280_humidity;BME280_pressure;Samples;Min_cycle;Max_cycle;Signal;HPM_P1;HPM_P2
2021/07/11 00:00:14;;;;;;;6.03;3.95;;;;;;;;;;5016264;28;20471;-72
2021/07/11 00:02:41;;;;;;;5.68;3.40;;;;;;;;;;4998642;28;20050;-72
2021/07/11 00:05:09;;;;;;;3.80;3.50;;;;;;;;;;4998444;28;20053;-72
2021/07/11 00:07:36;;;;;;;3.83;2.97;;;;;;;;;;4998717;28;20489;-72
2021/07/11 00:10:05;;;;;;;4.90;2.90;;;;;;;;;;5016058;28;20081;-72
2021/07/11 00:12:31;;;;;;;4.03;3.00;;;;;;;;;;5015597;28;20046;-72
2021/07/11 00:14:58;;;;;;;2.75;2.55;;;;;;;;;;4998426;28;20081;-72
2021/07/11 00:17:25;;;;;;;4.45;2.92;;;;;;;;;;4997890;28;20089;-72
2021/07/11 00:19:51;;;;;;;2.90;2.70;;;;;;;;;;4997802;28;20123;-72
2021/07/11 00:22:18;;;;;;;3.33;2.45;;;;;;;;;;5015554;28;20497;-72
2021/07/11 00:24:46;;;;;;;3.80;3.13;;;;;;;;;;5015686;28;20084;-72
2021/07/11 00:27:13;;;;;;;2.65;2.45;;;;;;;;;;5015191;28;20054;-72
2021/07/11 00:29:39;;;;;;;3.00;2.65;;;;;;;;;;5015077;28;20050;-72
2021/07/11 00:32:06;;;;;;;3.95;3.25;;;;;;;;;;4998027;28;20108;-72
2021/07/11 00:34:34;;;;;;;2.90;2.60;;;;;;;;;;5014862;28;20088;-72
2021/07/11 00:37:00;;;;;;;5.38;2.80;;;;;;;;;;5014610;28;20078;-72
2021/07/11 00:39:27;;;;;;;3.53;2.30;;;;;;;;;;5014781;28;20080;-72
2021/07/11 00:41:53;;;;;;;2.40;2.20;;;;;;;;;;5014608;28;20085;-72
2021/07/11 00:44:20;;;;;;;4.85;2.40;;;;;;;;;;5014879;28;20073;-72
2021/07/11 00:46:47;;;;;;;2.45;2.25;;;;;;;;;;4980522;28;20073;-72
2021/07/11 00:49:14;;;;;;;3.05;2.70;;;;;;;;;;4997368;28;20081;-72
2021/07/11 00:51:41;;;;;;;2.63;2.42;;;;;;;;;;4997149;28;20092;-72
2021/07/11 00:54:08;;;;;;;3.58;2.63;;;;;;;;;;5014697;28;20073;-72
2021/07/11 00:56:34;;;;;;;2.40;2.20;;;;;;;;;;5014578;28;20444;-73
2021/07/11 00:59:01;;;;;;;3.33;2.92;;;;;;;;;;5014851;28;20128;-73
2021/07/11 01:02:01;;;;;;;2.58;2.38;;;;;;;;;;4996905;28;20128;-73
2021/07/11 01:04:43;;;;;;;4.07;2.45;;;;;;;;;;4999484;28;20657;-73
2021/07/11 01:07:10;;;;;;;3.95;2.83;;;;;;;;;;4982776;28;20073;-72
2021/07/11 01:09:42;;;;;;;3.75;2.40;;;;;;;;;;4997153;28;20552;-73
2021/07/11 01:12:14;;;;;;;3.03;2.80;;;;;;;;;;4980830;28;20054;-73
2021/07/11 01:14:42;;;;;;;3.60;3.30;;;;;;;;;;4981357;28;20085;-72
2021/07/11 01:17:08;;;;;;;3.10;2.80;;;;;;;;;;4981004;28;20501;-72
2021/07/11 01:19:47;;;;;;;3.78;2.35;;;;;;;;;;4965018;28;20050;-72
2021/07/11 01:22:16;;;;;;;3.17;2.78;;;;;;;;;;5014210;28;20469;-72
2021/07/11 01:25:07;;;;;;;2.90;2.60;;;;;;;;;;4981102;28;20049;-72
2021/07/11 01:27:34;;;;;;;3.58;2.95;;;;;;;;;;5014211;28;20077;-72
2021/07/11 01:30:00;;;;;;;4.47;2.72;;;;;;;;;;4997149;28;20085;-73
2021/07/11 01:32:27;;;;;;;3.47;2.40;;;;;;;;;;4980633;28;20053;-73
2021/07/11 01:34:54;;;;;;;3.53;2.50;;;;;;;;;;4996995;28;20107;-73
2021/07/11 01:37:21;;;;;;;4.70;2.47;;;;;;;;;;4996424;28;20073;-73
2021/07/11 01:39:48;;;;;;;2.40;2.20;;;;;;;;;;4996442;28;20455;-73
2021/07/11 01:42:14;;;;;;;4.28;2.30;;;;;;;;;;4980353;28;20092;-73
2021/07/11 01:44:41;;;;;;;5.40;2.63;;;;;;;;;;5013816;28;20080;-72
2021/07/11 01:47:08;;;;;;;2.97;2.30;;;;;;;;;;4980649;28;20058;-72
2021/07/11 01:49:35;;;;;;;2.33;2.03;;;;;;;;;;4980522;28;20469;-72
2021/07/11 01:52:04;;;;;;;5.68;2.15;;;;;;;;;;5013585;28;20551;-72
2021/07/11 01:54:30;;;;;;;2.83;2.35;;;;;;;;;;4996219;28;20080;-72
2021/07/11 01:56:57;;;;;;;3.67;2.47;;;;;;;;;;4983085;28;20088;-72
2021/07/11 01:59:24;;;;;;;3.10;2.50;;;;;;;;;;4985293;28;20525;-72
2021/07/11 02:01:50;;;;;;;2.45;2.10;;;;;;;;;;4981910;28;20050;-72
2021/07/11 02:04:17;;;;;;;5.22;3.00;;;;;;;;;;5015079;28;20493;-73
2021/07/11 02:06:44;;;;;;;2.83;2.17;;;;;;;;;;4980633;28;20107;-72
2021/07/11 02:09:10;;;;;;;3.70;2.42;;;;;;;;;;5013891;28;20551;-72
2021/07/11 02:11:38;;;;;;;4.95;2.55;;;;;;;;;;4996315;28;20049;-72
2021/07/11 02:14:13;;;;;;;5.15;2.40;;;;;;;;;;4996510;28;20192;-72
2021/07/11 02:16:49;;;;;;;3.30;2.40;;;;;;;;;;4980537;28;20104;-72
2021/07/11 02:19:16;;;;;;;2.67;1.92;;;;;;;;;;4980819;28;20420;-72
2021/07/11 02:21:43;;;;;;;3.38;2.30;;;;;;;;;;4995923;28;20471;-72
2021/07/11 02:24:10;;;;;;;2.85;2.40;;;;;;;;;;4979523;28;20096;-73
2021/07/11 02:26:36;;;;;;;4.63;2.28;;;;;;;;;;4979309;28;20089;-72
2021/07/11 02:29:05;;;;;;;2.22;2.03;;;;;;;;;;4995402;28;20050;-73
2021/07/11 02:31:39;;;;;;;3.85;2.38;;;;;;;;;;5012660;28;20087;-73
2021/07/11 02:34:13;;;;;;;4.18;2.45;;;;;;;;;;4995919;28;20050;-73
2021/07/11 02:36:47;;;;;;;2.22;2.03;;;;;;;;;;4996055;28;20085;-73
2021/07/11 02:39:17;;;;;;;2.45;2.25;;;;;;;;;;4997364;28;20588;-72
2021/07/11 02:41:58;;;;;;;3.17;2.85;;;;;;;;;;5014105;28;20056;-73
2021/07/11 02:44:24;;;;;;;3.47;2.35;;;;;;;;;;4980488;28;20077;-73
2021/07/11 02:46:54;;;;;;;2.97;2.45;;;;;;;;;;5012926;28;20046;-72
2021/07/11 02:49:22;;;;;;;3.70;2.45;;;;;;;;;;4996164;28;20085;-73
2021/07/11 02:51:52;;;;;;;5.15;2.60;;;;;;;;;;4995328;28;20053;-73
2021/07/11 02:54:21;;;;;;;4.30;2.47;;;;;;;;;;4994992;28;20073;-73
2021/07/11 02:56:50;;;;;;;4.03;2.42;;;;;;;;;;5012267;28;20427;-73
2021/07/11 02:59:17;;;;;;;3.20;2.90;;;;;;;;;;4979178;28;20104;-72
2021/07/11 03:01:44;;;;;;;2.67;1.92;;;;;;;;;;5012083;28;20084;-73
2021/07/11 03:04:12;;;;;;;2.75;2.28;;;;;;;;;;4994851;28;20559;-73
2021/07/11 03:06:38;;;;;;;2.78;2.30;;;;;;;;;;5004716;23;20070;-75
2021/07/11 03:09:05;;;;;;;2.60;2.40;;;;;;;;;;4975275;28;20074;-74
2021/07/11 03:11:33;;;;;;;2.88;2.40;;;;;;;;;;4974753;28;20402;-74
2021/07/11 03:14:00;;;;;;;3.60;2.55;;;;;;;;;;4964935;28;20073;-74
2021/07/11 03:16:27;;;;;;;3.92;2.70;;;;;;;;;;5011691;28;20077;-74
2021/07/11 03:18:55;;;;;;;3.55;2.35;;;;;;;;;;4994619;28;20137;-74
2021/07/11 03:21:23;;;;;;;5.05;2.80;;;;;;;;;;4994290;28;20046;-74
2021/07/11 03:23:51;;;;;;;4.72;2.40;;;;;;;;;;5007656;28;20674;-74
2021/07/11 03:26:18;;;;;;;2.97;2.67;;;;;;;;;;4959128;28;20109;-73
2021/07/11 03:28:47;;;;;;;3.65;2.75;;;;;;;;;;4992236;28;20076;-74
2021/07/11 03:31:13;;;;;;;4.07;2.70;;;;;;;;;;4975135;28;20073;-74
2021/07/11 03:33:42;;;;;;;4.40;2.72;;;;;;;;;;4958868;28;20509;-73
2021/07/11 03:36:13;;;;;;;3.17;2.70;;;;;;;;;;4975098;28;20074;-73
2021/07/11 03:38:48;;;;;;;2.92;2.60;;;;;;;;;;4974629;28;20074;-74
2021/07/11 03:41:18;;;;;;;2.83;2.63;;;;;;;;;;4992107;28;20073;-74
2021/07/11 03:43:52;;;;;;;8.00;4.40;;;;;;;;;;4995478;28;20157;-74
2021/07/11 03:46:18;;;;;;;2.78;2.50;;;;;;;;;;4994305;28;20096;-73
2021/07/11 03:48:49;;;;;;;5.43;3.08;;;;;;;;;;4994302;28;20068;-73
2021/07/11 03:51:15;;;;;;;2.92;2.30;;;;;;;;;;4994069;28;20559;-74
2021/07/11 03:53:42;;;;;;;6.38;3.72;;;;;;;;;;4991477;28;20098;-74
2021/07/11 03:56:08;;;;;;;2.65;2.38;;;;;;;;;;4974717;28;20477;-74
2021/07/11 03:58:38;;;;;;;4.25;2.80;;;;;;;;;;4974715;28;20089;-74
2021/07/11 04:01:05;;;;;;;3.10;2.80;;;;;;;;;;4974885;28;20090;-73
2021/07/11 04:03:35;;;;;;;4.55;3.00;;;;;;;;;;4975627;28;20089;-74
2021/07/11 04:06:01;;;;;;;2.83;2.58;;;;;;;;;;4993816;28;20092;-73
2021/07/11 04:08:28;;;;;;;4.22;2.42;;;;;;;;;;4994099;28;20479;-74
2021/07/11 04:10:57;;;;;;;3.75;2.38;;;;;;;;;;4993938;28;20461;-74
2021/07/11 04:13:24;;;;;;;3.47;2.70;;;;;;;;;;5011024;28;20068;-73
2021/07/11 04:15:54;;;;;;;2.83;2.63;;;;;;;;;;4994097;28;20066;-73
2021/07/11 04:18:21;;;;;;;4.00;2.88;;;;;;;;;;4993937;28;20085;-73
2021/07/11 04:20:49;;;;;;;2.90;2.25;;;;;;;;;;5010275;28;20107;-73
2021/07/11 04:23:15;;;;;;;3.92;2.90;;;;;;;;;;5012628;28;20097;-73
2021/07/11 04:25:44;;;;;;;4.80;2.95;;;;;;;;;;4987418;28;20501;-73
2021/07/11 04:28:11;;;;;;;5.75;3.38;;;;;;;;;;4995831;28;20096;-73
2021/07/11 04:30:38;;;;;;;6.65;3.03;;;;;;;;;;4978024;28;20074;-73
2021/07/11 04:33:04;;;;;;;2.95;2.60;;;;;;;;;;4977879;28;20096;-73
2021/07/11 04:35:31;;;;;;;3.03;2.72;;;;;;;;;;4977667;28;20501;-73
2021/07/11 04:37:58;;;;;;;2.75;2.50;;;;;;;;;;4995165;28;20082;-73
2021/07/11 04:40:24;;;;;;;2.80;2.50;;;;;;;;;;4995029;28;20474;-73
2021/07/11 04:42:51;;;;;;;2.88;2.30;;;;;;;;;;4977775;28;20124;-73
2021/07/11 04:45:19;;;;;;;2.60;2.40;;;;;;;;;;4995947;28;20425;-73
2021/07/11 04:47:45;;;;;;;2.53;2.33;;;;;;;;;;4999229;28;20054;-73
2021/07/11 04:50:12;;;;;;;2.70;2.50;;;;;;;;;;4994872;28;20101;-73
2021/07/11 04:52:39;;;;;;;2.38;2.17;;;;;;;;;;4994660;28;20505;-73
2021/07/11 04:55:11;;;;;;;3.33;2.35;;;;;;;;;;4977411;28;20069;-73
2021/07/11 04:57:38;;;;;;;3.05;2.60;;;;;;;;;;4977468;28;20086;-73
2021/07/11 05:00:10;;;;;;;2.25;1.90;;;;;;;;;;4994920;28;20085;-73
2021/07/11 05:02:37;;;;;;;5.45;1.98;;;;;;;;;;5002743;28;20085;-73
2021/07/11 05:05:06;;;;;;;3.22;2.22;;;;;;;;;;5014050;28;20052;-73
2021/07/11 05:07:33;;;;;;;3.28;2.40;;;;;;;;;;5014081;28;20619;-73
2021/07/11 05:10:06;;;;;;;3.35;2.63;;;;;;;;;;5014202;28;20136;-73
2021/07/11 05:12:33;;;;;;;4.18;2.55;;;;;;;;;;5012810;28;20053;-72
2021/07/11 05:15:00;;;;;;;4.28;2.03;;;;;;;;;;5013990;28;20137;-74
2021/07/11 05:17:26;;;;;;;2.58;2.38;;;;;;;;;;5013885;28;20049;-73
2021/07/11 05:19:53;;;;;;;2.60;1.90;;;;;;;;;;5012856;28;20141;-73
2021/07/11 05:22:19;;;;;;;3.58;2.38;;;;;;;;;;4994166;28;20166;-73
2021/07/11 05:24:46;;;;;;;2.05;1.88;;;;;;;;;;4994451;28;20082;-74
2021/07/11 05:27:13;;;;;;;5.63;2.63;;;;;;;;;;4994431;28;20078;-73
2021/07/11 05:29:40;;;;;;;2.50;2.00;;;;;;;;;;4994145;28;20073;-73
2021/07/11 05:32:07;;;;;;;4.63;2.42;;;;;;;;;;4993918;28;20046;-73
2021/07/11 05:34:34;;;;;;;2.58;2.38;;;;;;;;;;4993645;28;20130;-73
2021/07/11 05:37:00;;;;;;;5.15;2.10;;;;;;;;;;4993974;28;20468;-73
2021/07/11 05:39:27;;;;;;;4.90;2.20;;;;;;;;;;4976802;28;20058;-74
2021/07/11 05:41:53;;;;;;;2.20;2.00;;;;;;;;;;4993740;28;20073;-73
2021/07/11 05:44:20;;;;;;;3.35;2.15;;;;;;;;;;4993869;28;20046;-73
2021/07/11 05:46:47;;;;;;;2.17;2.00;;;;;;;;;;4993826;28;20082;-73
2021/07/11 05:49:14;;;;;;;2.10;1.90;;;;;;;;;;4993980;28;20053;-73
2021/07/11 05:51:40;;;;;;;2.63;2.38;;;;;;;;;;4976505;28;20169;-73
2021/07/11 05:54:07;;;;;;;2.58;2.20;;;;;;;;;;4993797;28;20046;-73
2021/07/11 05:56:34;;;;;;;3.95;2.50;;;;;;;;;;4993435;28;20089;-73
2021/07/11 05:59:00;;;;;;;3.38;2.20;;;;;;;;;;4976566;28;20085;-73
2021/07/11 06:01:27;;;;;;;2.95;2.22;;;;;;;;;;4993268;28;20057;-74
2021/07/11 06:03:54;;;;;;;4.05;2.30;;;;;;;;;;4993554;28;20046;-73
2021/07/11 06:06:21;;;;;;;2.67;2.05;;;;;;;;;;4993264;28;20529;-73
2021/07/11 06:08:48;;;;;;;2.15;2.03;;;;;;;;;;4993711;28;20050;-73
2021/07/11 06:11:16;;;;;;;3.40;2.45;;;;;;;;;;4993100;28;20085;-73
2021/07/11 06:13:43;;;;;;;3.60;2.08;;;;;;;;;;5010172;28;20092;-72
2021/07/11 06:16:09;;;;;;;2.97;2.05;;;;;;;;;;4994522;28;20046;-73
2021/07/11 06:18:36;;;;;;;2.08;1.85;;;;;;;;;;4992560;28;20054;-73
2021/07/11 06:21:03;;;;;;;2.03;1.92;;;;;;;;;;4993138;28;20054;-72
2021/07/11 06:23:29;;;;;;;4.93;2.38;;;;;;;;;;4993469;28;20074;-70
2021/07/11 06:25:56;;;;;;;2.38;2.17;;;;;;;;;;4975959;28;20073;-70
2021/07/11 06:28:22;;;;;;;3.10;2.33;;;;;;;;;;4993026;28;20089;-71
2021/07/11 06:30:49;;;;;;;4.70;2.17;;;;;;;;;;4990188;28;20096;-71
2021/07/11 06:33:16;;;;;;;4.70;2.42;;;;;;;;;;4991225;28;20050;-70
2021/07/11 06:35:42;;;;;;;3.72;2.75;;;;;;;;;;4990930;28;20133;-70
2021/07/11 06:38:09;;;;;;;3.60;3.10;;;;;;;;;;4990898;28;20113;-70
2021/07/11 06:40:35;;;;;;;3.55;2.13;;;;;;;;;;4990765;28;20140;-71
2021/07/11 06:43:02;;;;;;;2.50;2.30;;;;;;;;;;4998601;28;20148;-71
2021/07/11 06:45:28;;;;;;;3.30;1.90;;;;;;;;;;5009599;28;20054;-71
2021/07/11 06:47:55;;;;;;;3.60;2.15;;;;;;;;;;5010370;28;20050;-71
2021/07/11 06:50:22;;;;;;;3.17;1.80;;;;;;;;;;5009508;28;20054;-72
2021/07/11 06:52:51;;;;;;;3.63;2.20;;;;;;;;;;5010263;28;20085;-72
2021/07/11 06:55:17;;;;;;;3.47;1.77;;;;;;;;;;5009837;28;20061;-71
2021/07/11 06:57:44;;;;;;;2.83;2.08;;;;;;;;;;5009738;28;20500;-71
2021/07/11 07:00:13;;;;;;;1.75;1.50;;;;;;;;;;5010303;28;20116;-71
2021/07/11 07:02:40;;;;;;;2.03;1.60;;;;;;;;;;5009275;28;20077;-71
2021/07/11 07:05:09;;;;;;;5.30;2.22;;;;;;;;;;5009950;28;20050;-71
2021/07/11 07:07:36;;;;;;;4.50;2.05;;;;;;;;;;5009985;28;20092;-71
2021/07/11 07:10:04;;;;;;;4.28;2.67;;;;;;;;;;5009552;28;20100;-71
2021/07/11 07:12:31;;;;;;;3.33;2.03;;;;;;;;;;4992816;28;20074;-71
2021/07/11 07:14:58;;;;;;;2.60;1.88;;;;;;;;;;4990274;28;20512;-71
2021/07/11 07:17:25;;;;;;;3.05;1.85;;;;;;;;;;4972824;28;20077;-71
2021/07/11 07:19:52;;;;;;;4.88;2.30;;;;;;;;;;4990332;28;20509;-71
2021/07/11 07:22:18;;;;;;;2.13;1.80;;;;;;;;;;5005165;28;20516;-71
2021/07/11 07:24:45;;;;;;;1.83;1.67;;;;;;;;;;5009809;28;20069;-71
2021/07/11 07:27:11;;;;;;;2.20;1.67;;;;;;;;;;5009915;28;20305;-71
2021/07/11 07:29:38;;;;;;;2.33;1.80;;;;;;;;;;5002308;28;20520;-72
2021/07/11 07:32:05;;;;;;;4.10;1.90;;;;;;;;;;4984641;28;20082;-70
2021/07/11 07:34:32;;;;;;;1.80;1.70;;;;;;;;;;4984908;28;20045;-71
2021/07/11 07:36:59;;;;;;;3.40;1.80;;;;;;;;;;4982572;28;20520;-72
2021/07/11 07:39:29;;;;;;;2.08;1.60;;;;;;;;;;4959105;28;20079;-72
2021/07/11 07:42:00;;;;;;;2.75;1.50;;;;;;;;;;4979728;28;20065;-71
2021/07/11 07:44:30;;;;;;;4.20;1.75;;;;;;;;;;4958866;28;20137;-71
2021/07/11 07:46:57;;;;;;;1.88;1.25;;;;;;;;;;4975123;28;20054;-72
2021/07/11 07:49:24;;;;;;;3.53;1.77;;;;;;;;;;4976404;28;20055;-72
2021/07/11 07:51:52;;;;;;;1.63;1.52;;;;;;;;;;4978278;28;20053;-72
2021/07/11 07:54:18;;;;;;;2.28;1.40;;;;;;;;;;4982069;28;20050;-67
2021/07/11 07:56:45;;;;;;;2.97;1.58;;;;;;;;;;4987175;28;20073;-71
2021/07/11 07:59:12;;;;;;;2.30;1.48;;;;;;;;;;4983715;28;20047;-71
2021/07/11 08:01:38;;;;;;;1.40;1.30;;;;;;;;;;4984475;28;20105;-72
2021/07/11 08:04:05;;;;;;;1.83;1.65;;;;;;;;;;4980390;28;20494;-71
2021/07/11 08:06:34;;;;;;;1.95;1.60;;;;;;;;;;4984554;28;20055;-71
2021/07/11 08:09:01;;;;;;;2.78;1.98;;;;;;;;;;4987980;28;20480;-72
2021/07/11 08:11:27;;;;;;;3.28;1.80;;;;;;;;;;4980380;28;20452;-71
2021/07/11 08:13:54;;;;;;;1.40;1.30;;;;;;;;;;4979166;28;20081;-71
2021/07/11 08:16:21;;;;;;;1.98;1.45;;;;;;;;;;4972059;23;20051;-71
2021/07/11 08:18:49;;;;;;;4.00;1.58;;;;;;;;;;4962204;28;20106;-71
2021/07/11 08:21:16;;;;;;;1.60;1.48;;;;;;;;;;4964970;28;20086;-71
2021/07/11 08:23:42;;;;;;;2.45;1.77;;;;;;;;;;4964924;28;20111;-70
2021/07/11 08:26:10;;;;;;;1.83;1.40;;;;;;;;;;4963421;28;20043;-71
2021/07/11 08:28:36;;;;;;;1.45;1.35;;;;;;;;;;4966840;28;20102;-71
2021/07/11 08:31:03;;;;;;;1.40;1.30;;;;;;;;;;4963623;28;20106;-71
2021/07/11 08:33:30;;;;;;;2.30;1.55;;;;;;;;;;4964649;28;20047;-71
2021/07/11 08:35:56;;;;;;;1.77;1.50;;;;;;;;;;4961215;28;20051;-71
2021/07/11 08:38:23;;;;;;;2.10;1.45;;;;;;;;;;4964578;28;20097;-71
2021/07/11 08:40:49;;;;;;;2.67;1.35;;;;;;;;;;4964953;28;20182;-71
2021/07/11 08:43:16;;;;;;;1.55;1.45;;;;;;;;;;4963810;28;20065;-72
2021/07/11 08:45:43;;;;;;;1.50;1.40;;;;;;;;;;4946109;28;20081;-70
2021/07/11 08:48:10;;;;;;;3.80;1.65;;;;;;;;;;4963661;28;20142;-72
2021/07/11 08:50:37;;;;;;;2.33;1.48;;;;;;;;;;4975535;28;20090;-71
2021/07/11 08:53:03;;;;;;;2.65;1.70;;;;;;;;;;4975684;28;20074;-71
2021/07/11 08:55:31;;;;;;;2.85;1.50;;;;;;;;;;4975113;28;20082;-71
2021/07/11 08:58:00;;;;;;;3.42;1.80;;;;;;;;;;4975065;28;20074;-71
2021/07/11 09:00:29;;;;;;;2.38;1.38;;;;;;;;;;4975246;28;20103;-71
2021/07/11 09:02:56;;;;;;;2.35;1.13;;;;;;;;;;4975249;28;20081;-71
2021/07/11 09:05:28;;;;;;;2.72;1.40;;;;;;;;;;4975035;28;20089;-71
2021/07/11 09:08:16;;;;;;;2.00;1.20;;;;;;;;;;4978146;23;20051;-68
2021/07/11 09:10:47;;;;;;;1.60;1.20;;;;;;;;;;4955570;28;20332;-69
2021/07/11 09:13:19;;;;;;;2.22;1.38;;;;;;;;;;4955686;28;20055;-69
2021/07/11 09:15:50;;;;;;;1.38;1.00;;;;;;;;;;4955728;28;20057;-69
2021/07/11 09:18:30;;;;;;;1.17;1.08;;;;;;;;;;4954348;29;20144;-69
2021/07/11 09:21:00;;;;;;;2.25;1.15;;;;;;;;;;4955623;29;20090;-69
2021/07/11 09:23:28;;;;;;;1.10;1.00;;;;;;;;;;4955658;28;20051;-69
2021/07/11 09:25:57;;;;;;;2.70;1.67;;;;;;;;;;4955373;29;20051;-69
2021/07/11 09:28:23;;;;;;;1.35;1.15;;;;;;;;;;4955188;28;20134;-69
2021/07/11 09:31:21;;;;;;;1.48;1.38;;;;;;;;;;4955341;28;20517;-69
2021/07/11 09:33:58;;;;;;;1.20;1.10;;;;;;;;;;4952997;28;20938;-67
2021/07/11 09:36:25;;;;;;;2.47;1.63;;;;;;;;;;4940585;28;20050;-67
2021/07/11 09:38:54;;;;;;;1.40;1.30;;;;;;;;;;4946643;29;20050;-72
2021/07/11 09:41:25;;;;;;;3.30;1.40;;;;;;;;;;4956184;28;20052;-72
2021/07/11 09:43:53;;;;;;;1.38;1.13;;;;;;;;;;4944473;28;20098;-73
2021/07/11 09:46:21;;;;;;;1.50;1.35;;;;;;;;;;4947118;29;20078;-72
2021/07/11 09:48:48;;;;;;;2.10;1.40;;;;;;;;;;4956240;28;20541;-71
2021/07/11 09:51:27;;;;;;;3.63;1.20;;;;;;;;;;4955235;28;20083;-70
2021/07/11 09:54:08;;;;;;;1.58;1.48;;;;;;;;;;4941732;29;20103;-71
2021/07/11 09:56:34;;;;;;;2.58;1.80;;;;;;;;;;4942659;29;20087;-73
2021/07/11 09:59:02;;;;;;;2.38;1.58;;;;;;;;;;4947736;29;20138;-71
2021/07/11 10:01:29;;;;;;;1.95;1.75;;;;;;;;;;4947551;28;20086;-69
2021/07/11 10:03:58;;;;;;;1.73;1.52;;;;;;;;;;4944096;29;20460;-72
2021/07/11 10:06:27;;;;;;;2.13;1.40;;;;;;;;;;4940576;29;20048;-72
2021/07/11 10:08:55;;;;;;;2.13;1.20;;;;;;;;;;4946883;29;20074;-70
2021/07/11 10:11:22;;;;;;;2.17;1.45;;;;;;;;;;4955028;28;20089;-72
2021/07/11 10:13:49;;;;;;;4.75;1.65;;;;;;;;;;4933855;28;20438;-70
2021/07/11 10:16:17;;;;;;;3.33;1.77;;;;;;;;;;4963947;28;20102;-72
2021/07/11 10:18:45;;;;;;;2.38;1.60;;;;;;;;;;4944924;28;20043;-73
2021/07/11 10:21:12;;;;;;;3.22;1.55;;;;;;;;;;4957946;28;20126;-72
2021/07/11 10:23:40;;;;;;;1.95;1.30;;;;;;;;;;4941099;28;20109;-73
2021/07/11 10:26:11;;;;;;;4.72;1.45;;;;;;;;;;4950032;28;20051;-75
2021/07/11 10:28:40;;;;;;;1.45;1.35;;;;;;;;;;4944690;28;20083;-74
2021/07/11 10:31:24;;;;;;;1.35;1.10;;;;;;;;;;4943760;29;20055;-72
2021/07/11 10:33:54;;;;;;;2.60;1.08;;;;;;;;;;4954523;28;20065;-70
2021/07/11 10:36:31;;;;;;;1.83;1.02;;;;;;;;;;4939650;29;20182;-71
2021/07/11 10:38:58;;;;;;;1.40;1.20;;;;;;;;;;4947425;29;20133;-71
2021/07/11 10:41:29;;;;;;;1.55;1.10;;;;;;;;;;4958475;28;20415;-73
2021/07/11 10:44:16;;;;;;;1.48;1.27;;;;;;;;;;4964864;28;20047;-72
2021/07/11 10:46:48;;;;;;;2.50;1.00;;;;;;;;;;4949390;29;20066;-75
2021/07/11 10:49:17;;;;;;;2.65;1.30;;;;;;;;;;4963366;28;20051;-68
2021/07/11 10:51:46;;;;;;;1.35;1.20;;;;;;;;;;4949924;28;20528;-67
2021/07/11 10:54:26;;;;;;;2.50;1.17;;;;;;;;;;4949107;28;20109;-67
2021/07/11 10:57:07;;;;;;;2.75;1.20;;;;;;;;;;4917608;28;20137;-68
2021/07/11 10:59:39;;;;;;;3.65;1.30;;;;;;;;;;4926068;29;20697;-68
2021/07/11 11:02:17;;;;;;;;;;;;;;;;;;4928352;29;20059;-68
2021/07/11 11:04:46;;;;;;;1.30;1.20;;;;;;;;;;4928561;29;19958;-68
2021/07/11 11:07:17;;;;;;;3.90;1.20;;;;;;;;;;4929094;29;20059;-68
2021/07/11 11:09:48;;;;;;;2.45;1.50;;;;;;;;;;4928553;29;20044;-68
2021/07/11 11:12:29;;;;;;;2.78;1.55;;;;;;;;;;4927501;29;20115;-67
2021/07/11 11:14:58;;;;;;;1.50;1.40;;;;;;;;;;4928675;29;20487;-67
2021/07/11 11:17:35;;;;;;;2.00;1.40;;;;;;;;;;4929091;29;20075;-67
2021/07/11 11:20:13;;;;;;;3.45;1.30;;;;;;;;;;4928727;29;20122;-67
2021/07/11 11:22:50;;;;;;;2.35;1.30;;;;;;;;;;4925644;29;20048;-68
2021/07/11 11:25:21;;;;;;;2.78;1.40;;;;;;;;;;4925338;29;20079;-68
2021/07/11 11:27:52;;;;;;;4.13;1.65;;;;;;;;;;4928716;29;20079;-68
2021/07/11 11:30:22;;;;;;;1.48;1.20;;;;;;;;;;4926410;29;20082;-69
2021/07/11 11:32:55;;;;;;;2.28;1.23;;;;;;;;;;4932609;28;20052;-69
2021/07/11 11:35:26;;;;;;;1.00;1.00;;;;;;;;;;4932531;29;20500;-68
2021/07/11 11:37:55;;;;;;;2.72;1.35;;;;;;;;;;4923462;29;20068;-69
2021/07/11 11:40:22;;;;;;;1.10;1.00;;;;;;;;;;4930056;29;20602;-68
2021/07/11 11:42:58;;;;;;;1.67;1.40;;;;;;;;;;4927878;29;20076;-69
2021/07/11 11:45:31;;;;;;;2.88;1.40;;;;;;;;;;4925749;29;20380;-69
2021/07/11 11:48:01;;;;;;;1.30;1.20;;;;;;;;;;4925587;29;20114;-74
2021/07/11 11:50:29;;;;;;;1.60;1.30;;;;;;;;;;4940408;28;20143;-69
2021/07/11 11:53:12;;;;;;;2.15;1.17;;;;;;;;;;4940691;28;20547;-71
2021/07/11 11:55:53;;;;;;;1.98;1.02;;;;;;;;;;4927475;29;20079;-70
2021/07/11 11:58:24;;;;;;;1.98;1.35;;;;;;;;;;4926308;29;20052;-71
2021/07/11 12:01:09;;;;;;;1.20;1.10;;;;;;;;;;4932047;29;20103;-74
2021/07/11 12:03:38;;;;;;;2.40;1.63;;;;;;;;;;4930856;29;20058;-71
2021/07/11 12:06:12;;;;;;;1.38;1.27;;;;;;;;;;4927746;29;20414;-72
2021/07/11 12:08:46;;;;;;;1.45;1.15;;;;;;;;;;4931984;29;20515;-71
2021/07/11 12:11:13;;;;;;;1.33;1.23;;;;;;;;;;4923602;29;20051;-71
2021/07/11 12:13:41;;;;;;;2.40;1.08;;;;;;;;;;4929695;29;20080;-72
2021/07/11 12:16:09;;;;;;;1.50;1.40;;;;;;;;;;4926456;29;20396;-74
2021/07/11 12:18:50;;;;;;;1.30;1.20;;;;;;;;;;4926272;29;20052;-73
2021/07/11 12:21:28;;;;;;;1.88;1.00;;;;;;;;;;4928594;29;20427;-72
2021/07/11 12:24:17;;;;;;;1.60;1.25;;;;;;;;;;4930678;29;20048;-71
2021/07/11 12:26:49;;;;;;;1.70;1.10;;;;;;;;;;4933222;29;20178;-70
2021/07/11 12:29:19;;;;;;;;;;;;;;;;;;4924513;29;20052;-70
2021/07/11 12:31:46;;;;;;;1.30;1.20;;;;;;;;;;4931496;29;19923;-70
2021/07/11 12:34:16;;;;;;;1.65;1.30;;;;;;;;;;4929930;29;20076;-70
2021/07/11 12:36:53;;;;;;;1.33;0.98;;;;;;;;;;4959790;28;20075;-70
2021/07/11 12:39:33;;;;;;;2.33;0.90;;;;;;;;;;4953187;28;20078;-70
2021/07/11 12:42:00;;;;;;;1.90;1.52;;;;;;;;;;4923456;29;20048;-70
2021/07/11 12:44:34;;;;;;;3.15;2.00;;;;;;;;;;4957508;28;20048;-69
2021/07/11 12:47:09;;;;;;;2.33;1.65;;;;;;;;;;4929814;29;20055;-70
2021/07/11 12:49:37;;;;;;;3.35;1.20;;;;;;;;;;4933909;29;20051;-70
2021/07/11 12:52:08;;;;;;;1.40;1.10;;;;;;;;;;4933631;29;20048;-70
2021/07/11 12:54:34;;;;;;;2.38;1.60;;;;;;;;;;4934232;29;20048;-70
2021/07/11 12:57:03;;;;;;;1.00;0.80;;;;;;;;;;4933859;29;20078;-69
2021/07/11 12:59:32;;;;;;;1.70;1.38;;;;;;;;;;4928711;29;20090;-69
2021/07/11 13:02:21;;;;;;;1.27;1.00;;;;;;;;;;4922310;29;20051;-70
2021/07/11 13:05:00;;;;;;;1.17;0.98;;;;;;;;;;4926737;29;20044;-69
2021/07/11 13:07:31;;;;;;;2.40;0.98;;;;;;;;;;4927569;29;20046;-68
2021/07/11 13:10:00;;;;;;;2.28;1.08;;;;;;;;;;4923737;29;20066;-69
2021/07/11 13:12:28;;;;;;;1.17;0.90;;;;;;;;;;4926739;29;20047;-70
2021/07/11 13:14:58;;;;;;;1.58;1.30;;;;;;;;;;4925344;29;20526;-69
2021/07/11 13:17:25;;;;;;;1.20;1.00;;;;;;;;;;4923767;29;20079;-70
2021/07/11 13:19:52;;;;;;;1.27;1.17;;;;;;;;;;4924284;29;20076;-71
2021/07/11 13:22:23;;;;;;;2.15;1.20;;;;;;;;;;4927703;29;20055;-69
2021/07/11 13:24:50;;;;;;;1.58;1.02;;;;;;;;;;4932385;29;20048;-72
2021/07/11 13:27:17;;;;;;;1.25;1.08;;;;;;;;;;4922781;29;20083;-69
2021/07/11 13:29:44;;;;;;;2.35;1.10;;;;;;;;;;4927112;29;20486;-70
2021/07/11 13:32:10;;;;;;;1.58;1.10;;;;;;;;;;4923183;29;20052;-71
2021/07/11 13:34:37;;;;;;;2.20;0.90;;;;;;;;;;4924654;29;20111;-70
2021/07/11 13:37:04;;;;;;;1.90;1.05;;;;;;;;;;4924836;29;20080;-69
2021/07/11 13:39:30;;;;;;;2.40;1.02;;;;;;;;;;4924213;29;20449;-69
2021/07/11 13:41:57;;;;;;;1.17;1.08;;;;;;;;;;4926581;29;20062;-69
2021/07/11 13:44:23;;;;;;;3.88;1.88;;;;;;;;;;4927245;29;20099;-69
2021/07/11 13:46:50;;;;;;;1.40;1.10;;;;;;;;;;4923491;29;20087;-69
2021/07/11 13:49:17;;;;;;;1.17;1.08;;;;;;;;;;4928060;29;20138;-68
2021/07/11 13:51:43;;;;;;;1.80;1.20;;;;;;;;;;4923011;29;20083;-70
2021/07/11 13:54:12;;;;;;;0.90;0.90;;;;;;;;;;4923446;29;20420;-70
2021/07/11 13:56:38;;;;;;;1.10;1.00;;;;;;;;;;4923402;29;20086;-70
2021/07/11 13:59:09;;;;;;;1.27;1.15;;;;;;;;;;4921977;29;20048;-68
2021/07/11 14:01:37;;;;;;;2.15;1.00;;;;;;;;;;4925538;29;20079;-69
2021/07/11 14:04:04;;;;;;;1.15;1.05;;;;;;;;;;4924851;29;20518;-68
2021/07/11 14:06:30;;;;;;;1.85;1.20;;;;;;;;;;4926781;29;20127;-68
2021/07/11 14:08:57;;;;;;;1.17;1.08;;;;;;;;;;4922006;29;20059;-70
2021/07/11 14:11:24;;;;;;;2.65;1.40;;;;;;;;;;4923171;29;20084;-68
2021/07/11 14:13:51;;;;;;;2.33;1.20;;;;;;;;;;4929330;29;20079;-71
2021/07/11 14:16:18;;;;;;;1.35;1.00;;;;;;;;;;4924278;29;20456;-71
2021/07/11 14:18:45;;;;;;;1.85;1.10;;;;;;;;;;4925662;29;20064;-70
2021/07/11 14:21:12;;;;;;;3.40;1.08;;;;;;;;;;4928406;29;20059;-69
2021/07/11 14:23:39;;;;;;;1.20;1.00;;;;;;;;;;4930096;29;20515;-69
2021/07/11 14:26:06;;;;;;;1.73;1.20;;;;;;;;;;4932269;29;20522;-70
2021/07/11 14:28:32;;;;;;;2.45;1.27;;;;;;;;;;4932227;29;20436;-73
2021/07/11 14:31:04;;;;;;;2.30;1.30;;;;;;;;;;4930001;29;20139;-72
2021/07/11 14:33:31;;;;;;;1.98;1.30;;;;;;;;;;4929610;29;20505;-71
2021/07/11 14:35:58;;;;;;;0.93;0.90;;;;;;;;;;4961516;28;20072;-72
2021/07/11 14:38:25;;;;;;;1.80;1.70;;;;;;;;;;4930973;29;20070;-68
2021/07/11 14:40:51;;;;;;;2.13;1.40;;;;;;;;;;4930648;29;20459;-67
2021/07/11 14:43:19;;;;;;;2.33;1.40;;;;;;;;;;4927041;29;20114;-66
2021/07/11 14:45:46;;;;;;;2.22;1.10;;;;;;;;;;4929579;29;20110;-66
2021/07/11 14:48:14;;;;;;;1.83;1.42;;;;;;;;;;4929518;29;20147;-65
2021/07/11 14:50:41;;;;;;;1.38;1.10;;;;;;;;;;4929562;29;20137;-66
2021/07/11 14:53:08;;;;;;;2.38;1.20;;;;;;;;;;4930205;29;20111;-67